Saint Louis, Oregon
Current Conditions -  °F | °C
As of 11:53 PM on Thursday 18 Dec 2014 (Local Time) from KMMV Reporting Station
Overcast Overcast  
Wind Chill: 45°   Ceiling: 7500
Heat Index: 48°   Visibility: 10mi
Dew Point: 44°   Wind: 6mph
Humidity: 86%   Direction: 150°SSE
Pressure: 29.86"   Gusts: NA
Location:  45.1057°N, 122.945°W
Report Text: KMMV 190753Z AUTO 15005KT 10SM SCT055 BKN075 OVC090 09/07 A2986 RMK AO2 RAE46 SLP112 P0005 T00890067 401280050
Loading
Personal Weather Stations






























Interactive Weather Map New forecast layout! Learn more

10-Day Weather Forecast

Advertisements
Track Severe Weather on mobile